Time;durP1;ratioP1;P1;durP2;ratioP2;P2;SDS_P1;SDS_P2;PMS_P1;PMS_P2;Temp;Humidity;BMP_temperature;BMP_pressure;BME280_temperature;BME280_humidity;BME280_pressure;Samples;Min_cycle;Max_cycle;Signal;HPM_P1;HPM_P2
2022/08/31 00:05:43;;;;;;;7.50;6.90;;;;;;;15.26;100.00;97191.13;5004729;28;20212;-55
2022/08/31 00:08:12;;;;;;;7.63;6.93;;;;;;;15.23;100.00;97190.75;5003945;28;20270;-61
2022/08/31 00:10:44;;;;;;;8.07;7.30;;;;;;;15.27;100.00;97197.31;5002819;28;21136;-56
2022/08/31 00:13:13;;;;;;;7.53;6.90;;;;;;;15.17;100.00;97192.41;5004646;28;20772;-60
2022/08/31 00:15:42;;;;;;;7.30;6.77;;;;;;;15.23;100.00;97180.88;5003857;28;20347;-54
2022/08/31 00:18:10;;;;;;;7.93;6.70;;;;;;;15.25;100.00;97186.03;4963122;28;20244;-59
2022/08/31 00:20:39;;;;;;;7.80;7.00;;;;;;;15.18;100.00;97186.88;5001718;28;20306;-59
2022/08/31 00:23:09;;;;;;;7.97;7.37;;;;;;;15.19;100.00;97180.50;5007070;28;20618;-60
2022/08/31 00:25:40;;;;;;;7.73;7.03;;;;;;;15.15;100.00;97191.81;5000907;28;20208;-59
2022/08/31 00:28:09;;;;;;;7.43;6.73;;;;;;;14.99;100.00;97193.13;5009413;28;20224;-58
2022/08/31 00:30:37;;;;;;;9.87;7.37;;;;;;;14.94;100.00;97184.94;5001579;28;20307;-54
2022/08/31 00:33:06;;;;;;;7.97;7.17;;;;;;;14.94;100.00;97182.28;4992965;28;20267;-60
2022/08/31 00:35:36;;;;;;;7.47;6.77;;;;;;;14.88;100.00;97173.25;4985968;28;20223;-53
2022/08/31 00:38:04;;;;;;;7.77;7.13;;;;;;;14.79;100.00;97177.19;5003702;28;20294;-58
2022/08/31 00:40:33;;;;;;;7.47;6.90;;;;;;;14.75;100.00;97184.78;5005672;28;20376;-54
2022/08/31 00:43:13;;;;;;;7.83;7.10;;;;;;;14.75;100.00;97182.97;4998395;28;20242;-58
2022/08/31 00:45:41;;;;;;;7.17;6.50;;;;;;;14.75;100.00;97185.63;5008056;28;20233;-57
2022/08/31 00:48:10;;;;;;;8.40;7.60;;;;;;;14.69;100.00;97181.09;4987441;28;20903;-62
2022/08/31 00:50:38;;;;;;;8.37;7.13;;;;;;;14.78;100.00;97179.06;4988528;28;20221;-56
2022/08/31 00:53:06;;;;;;;7.70;6.97;;;;;;;14.80;100.00;97177.00;5001974;28;20266;-58
2022/08/31 00:55:36;;;;;;;7.93;6.80;;;;;;;14.84;100.00;97180.06;5008054;28;20265;-55
2022/08/31 00:58:07;;;;;;;7.27;6.57;;;;;;;14.87;100.00;97182.28;5007055;28;20853;-59
2022/08/31 01:00:39;;;;;;;7.37;6.77;;;;;;;14.72;100.00;97183.38;5005841;28;20212;-59
2022/08/31 01:03:08;;;;;;;8.07;7.33;;;;;;;14.70;100.00;97182.78;4994230;28;20906;-60
2022/08/31 01:05:37;;;;;;;8.37;7.67;;;;;;;14.55;100.00;97183.00;4965516;28;20213;-60
2022/08/31 01:08:06;;;;;;;8.13;7.33;;;;;;;14.50;100.00;97187.31;4998309;28;20327;-56
2022/08/31 01:10:36;;;;;;;7.30;6.70;;;;;;;14.37;100.00;97190.81;5001917;28;20643;-57
2022/08/31 01:13:05;;;;;;;8.33;7.53;;;;;;;14.34;100.00;97192.06;4998638;28;20726;-57
2022/08/31 01:15:33;;;;;;;8.30;7.47;;;;;;;14.29;100.00;97192.69;5010601;28;20824;-60
2022/08/31 01:18:04;;;;;;;7.90;7.20;;;;;;;14.24;100.00;97194.34;5002240;28;20254;-61
2022/08/31 01:20:42;;;;;;;8.43;7.63;;;;;;;14.18;100.00;97187.97;4962424;28;20315;-53
2022/08/31 01:23:20;;;;;;;10.27;7.90;;;;;;;14.13;100.00;97195.78;4998186;28;20205;-50
2022/08/31 01:25:49;;;;;;;9.10;8.37;;;;;;;14.12;100.00;97202.13;5002084;28;20303;-60
2022/08/31 01:28:17;;;;;;;8.73;7.87;;;;;;;14.07;100.00;97184.09;4997945;28;20229;-55
2022/08/31 01:30:58;;;;;;;8.20;7.40;;;;;;;14.08;100.00;97193.72;5002392;28;20324;-57
2022/08/31 01:33:26;;;;;;;8.03;7.43;;;;;;;14.04;100.00;97198.66;5002266;28;20270;-56
2022/08/31 01:35:55;;;;;;;8.10;7.50;;;;;;;14.06;100.00;97200.31;4959726;28;20327;-60
2022/08/31 01:38:25;;;;;;;7.97;7.20;;;;;;;14.03;100.00;97204.19;5000805;28;20291;-57
2022/08/31 01:40:56;;;;;;;9.30;7.67;;;;;;;14.04;100.00;97203.16;4999430;28;20231;-60
2022/08/31 01:43:24;;;;;;;8.07;7.27;;;;;;;13.97;100.00;97203.16;5007307;28;20240;-55
2022/08/31 01:45:52;;;;;;;8.13;7.53;;;;;;;13.92;100.00;97208.28;4999285;28;20208;-59
2022/08/31 01:48:21;;;;;;;8.00;7.40;;;;;;;13.91;100.00;97209.31;5005725;28;20987;-54
2022/08/31 01:50:49;;;;;;;7.93;7.13;;;;;;;13.89;100.00;97203.34;4973005;28;20248;-57
2022/08/31 01:53:18;;;;;;;9.10;8.20;;;;;;;13.92;100.00;97205.63;4980708;28;20609;-59
2022/08/31 01:55:48;;;;;;;7.67;7.07;;;;;;;13.92;100.00;97213.59;4968440;28;20299;-57
2022/08/31 01:58:16;;;;;;;8.40;7.70;;;;;;;13.96;100.00;97212.16;4992495;28;20864;-60
2022/08/31 02:00:45;;;;;;;7.83;7.33;;;;;;;13.93;100.00;97211.78;4980530;28;20343;-53
2022/08/31 02:03:13;;;;;;;8.30;7.60;;;;;;;13.92;100.00;97199.47;5002602;28;20630;-59
2022/08/31 02:09:23;;;;;;;8.73;7.87;;;;;;;13.96;100.00;97198.03;4959345;28;20231;-57
2022/08/31 02:11:53;;;;;;;8.07;7.37;;;;;;;13.94;100.00;97186.78;4998641;28;20658;-57
2022/08/31 02:14:22;;;;;;;7.50;6.80;;;;;;;14.03;100.00;97182.88;4998288;28;20215;-61
2022/08/31 02:16:50;;;;;;;7.70;7.10;;;;;;;13.94;100.00;97174.25;4988838;28;20450;-60
2022/08/31 02:19:19;;;;;;;7.33;6.73;;;;;;;14.00;100.00;97177.97;4970577;28;20232;-57
2022/08/31 02:21:47;;;;;;;7.17;6.57;;;;;;;13.93;100.00;97185.94;5007342;28;20930;-60
2022/08/31 02:24:15;;;;;;;8.20;7.10;;;;;;;13.96;100.00;97166.88;4962851;28;21031;-54
2022/08/31 02:26:43;;;;;;;12.20;7.30;;;;;;;13.88;100.00;97169.75;5003232;28;20208;-56
2022/08/31 02:29:13;;;;;;;8.37;7.53;;;;;;;13.99;100.00;97171.00;5001730;28;20212;-54
2022/08/31 02:31:42;;;;;;;8.57;7.77;;;;;;;13.86;100.00;97167.31;4986283;28;20208;-61
2022/08/31 02:34:10;;;;;;;7.50;6.90;;;;;;;13.92;100.00;97172.84;5004282;28;20208;-54
2022/08/31 02:36:38;;;;;;;7.70;6.93;;;;;;;13.97;100.00;97170.38;4975947;28;20216;-60
2022/08/31 02:39:08;;;;;;;7.93;7.23;;;;;;;13.91;100.00;97173.88;4999226;28;20236;-60
2022/08/31 02:41:36;;;;;;;8.20;7.47;;;;;;;13.94;100.00;97168.94;4965822;28;20216;-55
2022/08/31 02:44:05;;;;;;;8.03;7.33;;;;;;;13.96;100.00;97166.88;4997550;28;20315;-62
2022/08/31 02:46:34;;;;;;;7.57;6.93;;;;;;;13.92;100.00;97167.53;4980706;28;20315;-56
2022/08/31 02:49:03;;;;;;;7.30;6.70;;;;;;;13.93;100.00;97169.16;4997887;28;20201;-59
2022/08/31 02:51:31;;;;;;;7.50;6.90;;;;;;;13.99;100.00;97163.00;4978811;28;20291;-58
2022/08/31 02:53:59;;;;;;;9.23;7.33;;;;;;;13.89;100.00;97166.91;4998083;28;20204;-57
2022/08/31 02:56:28;;;;;;;7.63;7.03;;;;;;;13.97;100.00;97163.19;4962314;28;20302;-58
2022/08/31 02:58:56;;;;;;;7.13;6.60;;;;;;;14.04;100.00;97158.72;5000959;28;20225;-58
2022/08/31 03:01:25;;;;;;;8.03;7.23;;;;;;;13.93;100.00;97167.31;4985083;28;20272;-56
2022/08/31 03:03:55;;;;;;;8.27;7.63;;;;;;;13.84;100.00;97171.19;4994957;28;20846;-60
2022/08/31 03:06:23;;;;;;;7.90;7.23;;;;;;;13.85;100.00;97176.34;4985881;28;21277;-55
2022/08/31 03:08:51;;;;;;;8.00;7.40;;;;;;;13.74;100.00;97169.78;5000959;28;20208;-57
2022/08/31 03:11:19;;;;;;;7.37;6.87;;;;;;;13.72;100.00;97174.50;4964386;28;21087;-56
2022/08/31 03:13:48;;;;;;;8.10;7.37;;;;;;;13.73;100.00;97169.97;5000359;28;20290;-57
2022/08/31 03:16:17;;;;;;;8.47;7.70;;;;;;;13.72;100.00;97177.16;4989948;28;20996;-55
2022/08/31 03:18:47;;;;;;;8.33;7.63;;;;;;;13.69;100.00;97174.06;4999315;28;20723;-56
2022/08/31 03:21:17;;;;;;;8.87;7.70;;;;;;;13.69;100.00;97177.56;4977158;28;20854;-57
2022/08/31 03:23:45;;;;;;;7.87;7.07;;;;;;;13.66;100.00;97175.31;5004131;28;20282;-59
2022/08/31 03:26:13;;;;;;;9.43;8.73;;;;;;;13.60;100.00;97176.09;4961750;28;20205;-54
2022/08/31 03:28:41;;;;;;;7.93;7.30;;;;;;;13.57;100.00;97184.50;5006528;28;20232;-52
2022/08/31 03:31:10;;;;;;;8.13;7.47;;;;;;;13.52;100.00;97181.63;4985946;28;20303;-55
2022/08/31 03:33:39;;;;;;;8.90;7.37;;;;;;;13.49;100.00;97180.19;5006541;28;20213;-55
2022/08/31 03:36:07;;;;;;;7.73;7.07;;;;;;;13.43;100.00;97176.50;5005883;28;20224;-53
2022/08/31 03:38:36;;;;;;;7.57;7.07;;;;;;;13.49;100.00;97177.53;4979540;28;20326;-54
2022/08/31 03:41:05;;;;;;;8.27;7.63;;;;;;;13.50;100.00;97179.19;4969088;28;20228;-58
2022/08/31 03:43:33;;;;;;;8.53;7.87;;;;;;;13.44;100.00;97180.81;5004280;28;20213;-56
2022/08/31 03:46:03;;;;;;;7.87;7.27;;;;;;;13.42;100.00;97176.66;5008007;28;20313;-59
2022/08/31 03:48:38;;;;;;;9.30;7.83;;;;;;;13.46;100.00;97178.75;4987880;28;20291;-55
2022/08/31 03:51:06;;;;;;;7.53;7.00;;;;;;;13.43;100.00;97173.84;5008372;28;20256;-54
2022/08/31 03:53:36;;;;;;;7.80;7.07;;;;;;;13.50;100.00;97179.19;4982123;28;20306;-55
2022/08/31 03:56:07;;;;;;;7.83;7.23;;;;;;;13.49;100.00;97180.19;4971287;28;20208;-58
2022/08/31 03:58:36;;;;;;;7.57;6.83;;;;;;;13.52;100.00;97182.47;4999406;28;20232;-53
2022/08/31 04:01:05;;;;;;;8.37;7.53;;;;;;;13.42;100.00;97174.84;4955416;28;20242;-56
2022/08/31 04:03:33;;;;;;;7.70;7.00;;;;;;;13.47;100.00;97184.91;4990795;28;20333;-54
2022/08/31 04:06:01;;;;;;;7.63;7.03;;;;;;;13.52;100.00;97187.78;5005660;28;20228;-59
2022/08/31 04:08:29;;;;;;;8.17;7.57;;;;;;;13.49;100.00;97185.53;4959967;28;21072;-54
2022/08/31 04:10:59;;;;;;;7.67;7.07;;;;;;;13.57;100.00;97185.31;5004799;28;20314;-56
2022/08/31 04:13:27;;;;;;;8.00;7.13;;;;;;;13.51;100.00;97191.47;4981401;28;20823;-51
2022/08/31 04:15:59;;;;;;;8.37;7.67;;;;;;;13.48;100.00;97196.38;5006035;28;20223;-54
2022/08/31 04:18:29;;;;;;;7.67;7.17;;;;;;;13.56;100.00;97190.84;4972665;28;20227;-49
2022/08/31 04:20:57;;;;;;;8.07;7.47;;;;;;;13.55;100.00;97194.53;5007776;28;20232;-51
2022/08/31 04:23:28;;;;;;;7.57;7.03;;;;;;;13.50;100.00;97196.97;4979020;28;20386;-56
2022/08/31 04:25:57;;;;;;;7.73;7.23;;;;;;;13.46;100.00;97204.56;5005121;28;20208;-55
2022/08/31 04:28:27;;;;;;;7.20;6.60;;;;;;;13.50;100.00;97202.31;5001025;28;20297;-52
2022/08/31 04:30:55;;;;;;;6.73;6.13;;;;;;;13.49;100.00;97198.84;4983688;28;20339;-55
2022/08/31 04:33:23;;;;;;;8.13;7.43;;;;;;;13.52;100.00;97205.56;4963001;28;20231;-61
2022/08/31 04:35:51;;;;;;;7.80;7.03;;;;;;;13.49;100.00;97205.97;5003024;28;20351;-57
2022/08/31 04:38:19;;;;;;;7.30;6.80;;;;;;;13.49;100.00;97209.47;4958969;28;20735;-59
2022/08/31 04:40:47;;;;;;;8.20;7.30;;;;;;;13.41;100.00;97197.16;5003876;28;20315;-59
2022/08/31 04:43:19;;;;;;;8.40;7.73;;;;;;;13.53;100.00;97215.19;5008273;28;20307;-55
2022/08/31 04:45:52;;;;;;;7.87;7.27;;;;;;;13.57;100.00;97222.59;4981906;28;20301;-53
2022/08/31 04:48:20;;;;;;;8.33;7.63;;;;;;;13.54;100.00;97220.34;4970807;28;20219;-53
2022/08/31 04:50:49;;;;;;;8.03;7.43;;;;;;;13.60;100.00;97216.88;5003666;28;20235;-60
2022/08/31 04:53:17;;;;;;;7.20;6.60;;;;;;;13.56;100.00;97220.94;4988217;28;20379;-56
2022/08/31 04:55:46;;;;;;;7.10;6.50;;;;;;;13.68;100.00;97226.50;5002355;28;20204;-59
2022/08/31 04:58:16;;;;;;;7.43;6.93;;;;;;;13.64;100.00;97222.63;5010074;28;20259;-54
2022/08/31 05:00:44;;;;;;;7.87;7.17;;;;;;;13.65;100.00;97218.94;4992468;28;20307;-60
2022/08/31 05:03:14;;;;;;;8.13;7.43;;;;;;;13.64;100.00;97216.47;4961115;28;20266;-59
2022/08/31 05:05:42;;;;;;;8.10;7.50;;;;;;;13.63;100.00;97214.81;4999280;28;20209;-59
2022/08/31 05:08:10;;;;;;;7.43;6.93;;;;;;;13.71;100.00;97222.59;5006995;28;20988;-56
2022/08/31 05:10:39;;;;;;;7.50;6.80;;;;;;;13.77;100.00;97220.97;4956870;28;20228;-57
2022/08/31 05:13:07;;;;;;;7.60;7.00;;;;;;;13.76;100.00;97225.47;5001981;28;20235;-55
2022/08/31 05:15:40;;;;;;;7.60;7.00;;;;;;;13.82;100.00;97224.66;4985078;28;20244;-60
2022/08/31 05:18:09;;;;;;;7.60;7.00;;;;;;;13.87;100.00;97226.72;4944572;28;20213;-55
2022/08/31 05:20:39;;;;;;;9.80;8.80;;;;;;;13.95;100.00;97223.84;5003204;28;20326;-60
2022/08/31 05:23:08;;;;;;;8.17;7.43;;;;;;;13.95;100.00;97220.38;5002905;28;20220;-53
2022/08/31 05:25:39;;;;;;;8.37;7.73;;;;;;;13.99;100.00;97224.28;4982088;28;20238;-60
2022/08/31 05:28:07;;;;;;;7.03;6.53;;;;;;;14.04;100.00;97221.81;4998579;28;20209;-57
2022/08/31 05:30:36;;;;;;;7.07;6.47;;;;;;;14.06;100.00;97219.75;4988479;28;20516;-60
2022/08/31 05:33:04;;;;;;;7.53;6.90;;;;;;;14.22;100.00;97220.38;4953466;28;20234;-53
2022/08/31 05:35:35;;;;;;;7.60;6.50;;;;;;;14.31;100.00;97225.25;5001590;28;20266;-57
2022/08/31 05:38:04;;;;;;;7.07;6.37;;;;;;;14.32;100.00;97224.25;5007344;28;20912;-53
2022/08/31 05:40:33;;;;;;;6.80;6.23;;;;;;;14.46;100.00;97221.56;4998347;28;20285;-59
2022/08/31 05:43:01;;;;;;;6.93;6.33;;;;;;;14.48;100.00;97220.31;4993818;28;20232;-58
2022/08/31 05:45:29;;;;;;;7.43;6.17;;;;;;;14.45;100.00;97227.94;5001831;28;20624;-57
2022/08/31 05:47:58;;;;;;;8.13;7.30;;;;;;;14.46;100.00;97225.03;5003308;28;20208;-59
2022/08/31 05:50:26;;;;;;;7.10;6.60;;;;;;;14.52;100.00;97219.91;4955478;28;20647;-60
2022/08/31 05:52:54;;;;;;;7.30;6.80;;;;;;;14.56;100.00;97218.47;5000490;28;20499;-58
2022/08/31 05:55:24;;;;;;;7.40;6.80;;;;;;;14.58;100.00;97225.22;5007704;28;20309;-55
2022/08/31 05:57:52;;;;;;;8.63;7.30;;;;;;;14.63;100.00;97224.63;4980215;28;20685;-54
2022/08/31 06:00:21;;;;;;;6.73;6.07;;;;;;;14.70;100.00;97212.09;5005075;28;20236;-54
2022/08/31 06:02:50;;;;;;;7.57;6.90;;;;;;;14.65;100.00;97213.72;5001373;28;20310;-58
2022/08/31 06:05:21;;;;;;;7.10;6.50;;;;;;;14.68;100.00;97216.81;4957546;28;20224;-56
2022/08/31 06:07:49;;;;;;;7.30;6.67;;;;;;;14.62;100.00;97206.97;4954409;28;20216;-56
2022/08/31 06:10:19;;;;;;;7.30;6.60;;;;;;;14.76;100.00;97216.59;4983625;28;20239;-59
2022/08/31 06:12:49;;;;;;;7.73;6.97;;;;;;;14.84;100.00;97217.38;5001328;28;21363;-55
2022/08/31 06:15:18;;;;;;;7.90;7.00;;;;;;;14.87;100.00;97211.63;5001841;28;20201;-58
2022/08/31 06:17:46;;;;;;;6.40;5.90;;;;;;;14.96;100.00;97210.34;4981201;28;20205;-56
2022/08/31 06:20:16;;;;;;;7.33;6.67;;;;;;;15.02;100.00;97216.72;5001892;28;20649;-62
2022/08/31 06:22:45;;;;;;;7.17;6.57;;;;;;;15.07;100.00;97208.88;4956785;28;21787;-56
2022/08/31 06:25:18;;;;;;;8.73;6.30;;;;;;;15.22;100.00;97207.81;5002146;28;20213;-55
2022/08/31 06:27:49;;;;;;;5.60;5.23;;;;;;;15.26;100.00;97211.69;5003797;28;20273;-54
2022/08/31 06:30:20;;;;;;;6.33;5.93;;;;;;;15.30;100.00;97212.88;5002270;28;20224;-58
2022/08/31 06:32:49;;;;;;;6.87;6.23;;;;;;;15.56;100.00;97209.25;4988103;28;20212;-59
2022/08/31 06:35:17;;;;;;;6.17;5.63;;;;;;;15.65;100.00;97208.97;5000244;28;20209;-56
2022/08/31 06:37:46;;;;;;;6.03;5.67;;;;;;;15.86;100.00;97211.31;4998872;28;20998;-60
2022/08/31 06:40:14;;;;;;;6.27;5.73;;;;;;;16.02;100.00;97211.81;4961882;28;20237;-56
2022/08/31 06:42:42;;;;;;;5.97;5.40;;;;;;;16.38;100.00;97222.81;4999799;28;20211;-61
2022/08/31 06:45:12;;;;;;;5.87;5.47;;;;;;;16.52;100.00;97224.31;5005319;28;20254;-56
2022/08/31 06:47:42;;;;;;;6.17;5.67;;;;;;;16.59;100.00;97224.25;4982644;28;20938;-59
2022/08/31 06:50:11;;;;;;;6.00;5.50;;;;;;;16.66;100.00;97224.19;4997581;28;20225;-57
2022/08/31 06:52:39;;;;;;;6.03;5.57;;;;;;;16.57;100.00;97229.03;4997294;28;20333;-61
2022/08/31 06:55:09;;;;;;;9.87;5.87;;;;;;;16.67;100.00;97226.63;4952808;28;20303;-57
2022/08/31 06:57:37;;;;;;;6.20;5.70;;;;;;;16.48;100.00;97232.00;4999237;28;20649;-58
2022/08/31 07:00:07;;;;;;;5.60;5.10;;;;;;;16.73;100.00;97231.09;5001942;28;20263;-56
2022/08/31 07:02:36;;;;;;;6.83;6.33;;;;;;;16.79;100.00;97245.47;4990216;28;20207;-60
2022/08/31 07:05:06;;;;;;;5.60;5.10;;;;;;;16.90;100.00;97238.56;4999859;28;20221;-57
2022/08/31 07:07:40;;;;;;;5.63;5.10;;;;;;;16.87;100.00;97234.44;5006452;28;20509;-56
2022/08/31 07:10:09;;;;;;;6.57;5.00;;;;;;;16.92;100.00;97236.47;4964833;28;20219;-55
2022/08/31 07:12:38;;;;;;;8.63;6.07;;;;;;;16.99;100.00;97231.03;5004677;28;20208;-56
2022/08/31 07:15:07;;;;;;;6.00;5.60;;;;;;;17.12;100.00;97238.94;5008660;28;20204;-55
2022/08/31 07:17:35;;;;;;;5.33;5.00;;;;;;;17.18;100.00;97221.97;5004798;28;20207;-57
2022/08/31 07:20:06;;;;;;;4.97;4.67;;;;;;;17.11;100.00;97242.66;4987113;28;20262;-55
2022/08/31 07:22:34;;;;;;;6.07;5.33;;;;;;;17.18;100.00;97247.91;4995630;28;20704;-55
2022/08/31 07:25:02;;;;;;;5.73;5.23;;;;;;;17.07;100.00;97239.59;4995692;28;20296;-57
2022/08/31 07:27:33;;;;;;;8.10;5.07;;;;;;;17.25;100.00;97237.13;4950904;28;20354;-58
2022/08/31 07:30:01;;;;;;;4.83;4.53;;;;;;;17.33;100.00;97247.53;5002842;28;20783;-54
2022/08/31 07:32:29;;;;;;;4.90;4.53;;;;;;;17.03;100.00;97246.44;5002785;28;20566;-58
2022/08/31 07:34:57;;;;;;;5.43;5.03;;;;;;;17.19;100.00;97249.53;4987216;28;20462;-51
2022/08/31 07:43:03;;;;;;;5.47;4.93;;;;;;;17.55;100.00;97253.19;4999098;28;20218;-52
2022/08/31 07:45:33;;;;;;;5.37;4.97;;;;;;;17.73;100.00;97254.22;4998583;28;20239;-57
2022/08/31 07:48:06;;;;;;;5.77;4.67;;;;;;;17.79;100.00;97253.28;5000943;28;20208;-58
2022/08/31 07:50:37;;;;;;;4.87;4.47;;;;;;;17.83;100.00;97254.47;4986113;28;20240;-59
2022/08/31 07:53:07;;;;;;;5.13;4.77;;;;;;;18.06;100.00;97259.09;5002586;28;20200;-56
2022/08/31 07:55:36;;;;;;;5.00;4.67;;;;;;;18.18;100.00;97260.97;4998334;28;20681;-55
2022/08/31 07:58:05;;;;;;;5.63;5.13;;;;;;;18.26;100.00;97257.13;4965243;28;20606;-53
2022/08/31 08:00:34;;;;;;;7.97;5.17;;;;;;;18.12;100.00;97251.16;5000105;28;20436;-57
2022/08/31 08:03:07;;;;;;;6.67;5.10;;;;;;;18.33;100.00;97255.16;5010165;28;20212;-56
2022/08/31 08:05:40;;;;;;;9.03;6.07;;;;;;;18.49;100.00;97251.78;4981144;28;20220;-58
2022/08/31 08:08:10;;;;;;;4.93;4.50;;;;;;;18.68;100.00;97251.66;5003878;28;20240;-53
2022/08/31 08:10:47;;;;;;;4.50;4.10;;;;;;;18.82;100.00;97248.75;5001196;28;20318;-57
2022/08/31 08:13:20;;;;;;;4.43;4.00;;;;;;;19.00;100.00;97259.34;4959070;28;20213;-57
2022/08/31 08:15:49;;;;;;;4.90;4.60;;;;;;;19.15;100.00;97264.22;4947362;28;20233;-56
2022/08/31 08:18:20;;;;;;;6.83;4.57;;;;;;;19.28;100.00;97268.50;4996720;28;20201;-55
2022/08/31 08:20:48;;;;;;;4.60;4.30;;;;;;;19.47;100.00;97255.72;5001980;28;20430;-56
2022/08/31 08:23:19;;;;;;;5.13;4.73;;;;;;;19.55;100.00;97259.06;5001276;28;20677;-55
2022/08/31 08:26:00;;;;;;;5.17;4.67;;;;;;;19.77;100.00;97260.03;5005865;28;20196;-56
2022/08/31 08:28:29;;;;;;;5.00;4.60;;;;;;;19.70;100.00;97256.69;5004853;28;20243;-53
2022/08/31 08:31:15;;;;;;;5.23;4.73;;;;;;;19.52;100.00;97257.69;4956641;28;20372;-55
2022/08/31 08:33:44;;;;;;;4.20;3.93;;;;;;;19.90;100.00;97258.09;5002049;28;20708;-53
2022/08/31 08:36:18;;;;;;;4.30;4.00;;;;;;;20.14;100.00;97258.78;5005360;28;20208;-51
2022/08/31 08:38:50;;;;;;;4.57;4.27;;;;;;;20.00;100.00;97249.41;5003701;28;20204;-56
2022/08/31 08:41:20;;;;;;;5.37;4.87;;;;;;;20.35;100.00;97259.13;5003885;28;20225;-53
2022/08/31 08:43:51;;;;;;;5.47;4.77;;;;;;;20.55;100.00;97261.31;5003016;28;20434;-58
2022/08/31 08:46:28;;;;;;;8.90;5.13;;;;;;;20.71;100.00;97262.34;4964776;28;20217;-57
2022/08/31 08:49:11;;;;;;;5.53;5.03;;;;;;;20.85;100.00;97265.53;4999273;28;20211;-52
2022/08/31 08:51:40;;;;;;;5.03;4.63;;;;;;;20.62;100.00;97266.50;5012274;28;20568;-58
2022/08/31 08:54:12;;;;;;;5.10;4.70;;;;;;;20.70;100.00;97260.72;4995707;28;20496;-58
2022/08/31 08:56:46;;;;;;;8.13;5.20;;;;;;;20.66;100.00;97262.28;5002317;28;20702;-58
2022/08/31 08:59:15;;;;;;;10.20;5.43;;;;;;;20.48;100.00;97266.03;5004839;28;20406;-54
2022/08/31 09:01:48;;;;;;;5.10;4.70;;;;;;;20.63;100.00;97265.44;4962179;28;21759;-58
2022/08/31 09:04:29;;;;;;;5.30;4.80;;;;;;;20.81;100.00;97267.06;4998532;28;20416;-58
2022/08/31 09:07:17;;;;;;;4.83;4.53;;;;;;;20.85;100.00;97265.53;5000960;28;20215;-59
2022/08/31 09:09:49;;;;;;;4.80;4.50;;;;;;;20.82;100.00;97269.53;5000021;28;20228;-56
2022/08/31 09:12:25;;;;;;;5.63;5.13;;;;;;;21.00;100.00;97266.78;5003760;28;20201;-54
2022/08/31 09:15:06;;;;;;;5.20;4.90;;;;;;;20.91;100.00;97263.69;5002084;28;20697;-59
2022/08/31 09:17:42;;;;;;;4.73;4.43;;;;;;;21.06;100.00;97261.22;4958865;28;20219;-49
2022/08/31 09:20:12;;;;;;;5.73;5.17;;;;;;;20.86;100.00;97269.03;4998159;28;20310;-58
2022/08/31 09:22:45;;;;;;;5.00;4.70;;;;;;;20.74;100.00;97261.84;5009066;28;20750;-57
2022/08/31 09:25:17;;;;;;;4.53;4.23;;;;;;;20.60;100.00;97261.38;5004680;28;20404;-58
2022/08/31 09:27:56;;;;;;;5.20;4.60;;;;;;;20.53;100.00;97266.91;5005491;28;20585;-55
2022/08/31 09:30:41;;;;;;;4.70;4.40;;;;;;;20.90;100.00;97268.28;5004776;28;20527;-56
2022/08/31 09:33:17;;;;;;;6.33;5.07;;;;;;;21.02;100.00;97265.44;4953998;28;20952;-52
2022/08/31 09:35:46;;;;;;;8.23;5.20;;;;;;;21.39;100.00;97266.72;5002626;28;20205;-58
2022/08/31 09:38:28;;;;;;;10.93;6.07;;;;;;;21.73;100.00;97273.84;5004304;28;20210;-57
2022/08/31 09:40:58;;;;;;;8.87;4.77;;;;;;;21.98;99.44;97266.00;5005019;28;20228;-58
2022/08/31 09:43:33;;;;;;;4.40;4.10;;;;;;;21.67;100.00;97267.59;5003588;28;20734;-57
2022/08/31 09:46:06;;;;;;;9.70;5.53;;;;;;;21.81;100.00;97268.81;4997270;28;20278;-55
2022/08/31 09:48:44;;;;;;;5.10;4.60;;;;;;;21.23;100.00;97266.56;5008809;28;20710;-56
2022/08/31 09:51:22;;;;;;;5.23;4.73;;;;;;;20.83;100.00;97270.31;4973574;28;20412;-53
2022/08/31 09:56:55;;;;;;;5.37;4.87;;;;;;;21.24;100.00;97270.03;5002628;28;20564;-55
2022/08/31 09:59:38;;;;;;;4.70;4.40;;;;;;;21.39;100.00;97266.72;5006451;28;20208;-54
2022/08/31 10:02:10;;;;;;;4.70;4.30;;;;;;;21.57;100.00;97270.97;5000940;28;20885;-54
2022/08/31 10:04:49;;;;;;;5.33;4.93;;;;;;;21.51;100.00;97266.59;4957206;28;20213;-55
2022/08/31 10:07:36;;;;;;;8.37;4.90;;;;;;;21.59;100.00;97266.13;4998246;28;20661;-56
2022/08/31 10:10:08;;;;;;;5.10;4.70;;;;;;;21.53;100.00;97267.16;4996263;28;20228;-55
2022/08/31 10:13:00;;;;;;;7.33;6.20;;;;;;;21.20;100.00;97264.34;5000781;28;20786;-56
2022/08/31 10:15:32;;;;;;;4.67;4.33;;;;;;;21.32;100.00;97266.91;5007063;28;20953;-54
2022/08/31 10:18:10;;;;;;;4.83;4.53;;;;;;;21.21;100.00;97268.69;4995503;28;20481;-52
2022/08/31 10:20:44;;;;;;;5.47;5.07;;;;;;;21.22;100.00;97266.78;4951303;28;20228;-56
2022/08/31 10:23:19;;;;;;;5.53;5.03;;;;;;;21.00;100.00;97269.47;4945713;28;20229;-55
2022/08/31 10:25:53;;;;;;;6.10;5.00;;;;;;;21.34;100.00;97277.44;4977575;28;20277;-58
2022/08/31 10:28:30;;;;;;;5.00;4.67;;;;;;;21.51;100.00;97277.38;5003054;28;20228;-55
2022/08/31 10:31:01;;;;;;;5.17;4.57;;;;;;;21.46;100.00;97282.72;4978033;28;20236;-56
2022/08/31 10:35:01;;;;;;;5.30;5.00;;;;;;;21.61;100.00;97280.16;4999355;28;20668;-54
2022/08/31 10:36:31;;;;;;;5.33;4.80;;;;;;;21.62;100.00;97279.09;5006858;28;20694;-53
2022/08/31 10:39:00;;;;;;;4.40;4.20;;;;;;;21.64;100.00;97279.69;4953933;28;20332;-54
2022/08/31 10:41:31;;;;;;;5.50;5.00;;;;;;;21.53;100.00;97284.13;4999684;28;20224;-52
2022/08/31 10:44:06;;;;;;;5.40;5.00;;;;;;;21.65;100.00;97284.00;5007336;28;20486;-52
2022/08/31 10:46:35;;;;;;;5.07;4.57;;;;;;;21.73;100.00;97279.22;4991684;28;20219;-56
2022/08/31 10:49:04;;;;;;;5.30;4.90;;;;;;;21.96;100.00;97278.94;4998465;28;20393;-54
2022/08/31 10:51:40;;;;;;;5.37;4.97;;;;;;;22.09;100.00;97284.97;5006630;28;20240;-53
2022/08/31 10:54:27;;;;;;;6.80;5.00;;;;;;;21.65;100.00;97281.31;4962200;28;20814;-55
2022/08/31 10:57:02;;;;;;;5.27;4.97;;;;;;;21.44;100.00;97288.34;5000193;28;20204;-58
2022/08/31 10:59:38;;;;;;;7.17;5.60;;;;;;;21.92;100.00;97279.69;5003661;28;20242;-55
2022/08/31 11:02:29;;;;;;;5.27;4.77;;;;;;;21.89;100.00;97277.50;4986206;28;23455;-53
2022/08/31 11:05:09;;;;;;;4.90;4.60;;;;;;;21.66;100.00;97285.63;4997254;28;20208;-49
2022/08/31 11:07:46;;;;;;;4.97;4.53;;;;;;;21.86;100.00;97283.41;5005376;28;20212;-54
2022/08/31 11:10:21;;;;;;;4.73;4.43;;;;;;;22.15;100.00;97285.84;4961040;28;20833;-53
2022/08/31 11:12:55;;;;;;;5.07;4.67;;;;;;;22.03;100.00;97291.38;4998523;28;20212;-56
2022/08/31 11:15:46;;;;;;;5.03;4.63;;;;;;;22.14;97.49;97282.31;5009549;28;20239;-52
2022/08/31 11:18:58;;;;;;;5.17;4.70;;;;;;;21.89;99.90;97291.81;4986868;28;20208;-55
2022/08/31 11:21:57;;;;;;;5.33;4.83;;;;;;;20.77;100.00;97287.44;5005145;28;20630;-53
2022/08/31 11:24:59;;;;;;;4.97;4.57;;;;;;;20.60;100.00;97290.16;4995484;28;20595;-52
2022/08/31 11:27:32;;;;;;;4.50;4.10;;;;;;;20.65;100.00;97293.75;4996270;28;20199;-52
2022/08/31 11:30:02;;;;;;;5.53;5.10;;;;;;;20.14;100.00;97290.25;5003057;28;20790;-53
2022/08/31 11:32:36;;;;;;;4.67;4.27;;;;;;;19.93;100.00;97290.72;4987363;28;20203;-56
2022/08/31 11:35:09;;;;;;;4.27;3.97;;;;;;;19.90;100.00;97293.91;5000324;28;20413;-52
2022/08/31 11:37:54;;;;;;;5.43;5.03;;;;;;;19.80;100.00;97291.81;5009025;28;20554;-55
2022/08/31 11:41:12;;;;;;;5.53;5.00;;;;;;;19.71;100.00;97303.16;5007603;28;20256;-53
2022/08/31 11:43:50;;;;;;;4.57;4.20;;;;;;;19.92;100.00;97290.94;5002517;28;20876;-56
2022/08/31 11:46:42;;;;;;;5.17;4.87;;;;;;;20.04;100.00;97296.28;5006717;28;20207;-56
2022/08/31 11:49:42;;;;;;;4.80;4.50;;;;;;;19.89;100.00;97297.63;4987238;28;20238;-52
2022/08/31 11:52:47;;;;;;;5.10;4.80;;;;;;;20.10;100.00;97303.38;5010097;28;20391;-59
2022/08/31 11:55:22;;;;;;;8.57;5.60;;;;;;;20.13;100.00;97307.44;4967534;28;20396;-55
2022/08/31 11:58:10;;;;;;;5.07;4.67;;;;;;;20.39;100.00;97306.00;4913939;28;20302;-56
2022/08/31 12:00:50;;;;;;;5.30;5.00;;;;;;;20.57;100.00;97310.31;4958845;28;20233;-55
2022/08/31 12:03:49;;;;;;;4.97;4.50;;;;;;;20.73;100.00;97311.38;4938347;28;20329;-51